createdAt,value
2022-11-03T00:01:37.816Z,15.10
2022-11-03T00:04:07.444Z,15.00
2022-11-03T00:06:36.226Z,15.00
2022-11-03T00:09:07.222Z,15.00
2022-11-03T00:11:38.106Z,15.00
2022-11-03T00:14:07.553Z,15.00
2022-11-03T00:16:36.146Z,15.00
2022-11-03T00:19:04.765Z,15.00
2022-11-03T00:21:33.453Z,15.10
2022-11-03T00:24:02.650Z,15.10
2022-11-03T00:26:32.419Z,15.10
2022-11-03T00:29:07.104Z,15.10
2022-11-03T00:31:37.318Z,15.10
2022-11-03T00:34:07.187Z,15.10
2022-11-03T00:36:37.942Z,15.10
2022-11-03T00:39:07.027Z,15.10
2022-11-03T00:41:35.400Z,15.10
2022-11-03T00:44:05.440Z,15.00
2022-11-03T00:46:35.645Z,15.00
2022-11-03T00:49:05.007Z,15.10
2022-11-03T00:51:34.545Z,15.10
2022-11-03T00:54:04.742Z,15.10
2022-11-03T00:56:34.356Z,15.10
2022-11-03T00:59:06.063Z,15.00
2022-11-03T01:01:40.549Z,15.00
2022-11-03T01:04:41.590Z,15.00
2022-11-03T01:07:10.011Z,15.00
2022-11-03T01:09:39.962Z,15.00
2022-11-03T01:12:11.127Z,15.00
2022-11-03T01:14:43.370Z,15.00
2022-11-03T01:17:13.664Z,15.00
2022-11-03T01:19:42.065Z,14.90
2022-11-03T01:22:11.428Z,15.00
2022-11-03T01:24:41.361Z,15.00
2022-11-03T01:27:10.654Z,14.90
2022-11-03T01:29:40.562Z,15.00
2022-11-03T01:32:09.482Z,15.00
2022-11-03T01:34:38.286Z,15.00
2022-11-03T01:37:06.891Z,14.90
2022-11-03T01:39:35.570Z,14.90
2022-11-03T01:42:04.263Z,14.90
2022-11-03T01:44:37.949Z,14.90
2022-11-03T01:47:28.635Z,14.90
2022-11-03T01:50:01.541Z,14.90
2022-11-03T01:52:34.085Z,14.90
2022-11-03T01:55:05.910Z,14.90
2022-11-03T01:57:38.455Z,14.90
2022-11-03T02:00:08.524Z,14.90
2022-11-03T02:02:44.829Z,14.90
2022-11-03T02:05:16.541Z,15.00
2022-11-03T02:07:51.066Z,15.00
2022-11-03T02:10:19.755Z,14.90
2022-11-03T02:12:49.390Z,14.90
2022-11-03T02:15:21.576Z,14.90
2022-11-03T02:17:53.499Z,14.90
2022-11-03T02:20:24.649Z,14.90
2022-11-03T02:23:16.614Z,15.00
2022-11-03T02:25:48.565Z,15.00
2022-11-03T02:28:19.799Z,15.00
2022-11-03T02:31:08.486Z,15.00
2022-11-03T02:33:48.850Z,15.00
2022-11-03T02:36:21.753Z,15.00
2022-11-03T02:38:57.543Z,15.00
2022-11-03T02:41:29.634Z,15.00
2022-11-03T02:43:58.848Z,15.00
2022-11-03T02:46:29.130Z,15.00
2022-11-03T02:48:57.761Z,15.00
2022-11-03T02:51:26.215Z,15.00
2022-11-03T02:54:03.857Z,15.00
2022-11-03T02:56:39.732Z,15.00
2022-11-03T02:59:12.516Z,15.00
2022-11-03T03:01:47.994Z,15.00
2022-11-03T03:04:21.626Z,15.00
2022-11-03T03:06:54.370Z,15.00
2022-11-03T03:09:26.317Z,15.00
2022-11-03T03:11:59.650Z,15.00
2022-11-03T03:14:32.891Z,15.00
2022-11-03T03:17:04.441Z,15.00
2022-11-03T03:19:45.245Z,15.10
2022-11-03T03:22:18.776Z,15.00
2022-11-03T03:24:52.786Z,15.00
2022-11-03T03:27:27.446Z,15.00
2022-11-03T03:30:00.318Z,14.90
2022-11-03T03:32:31.614Z,14.90
2022-11-03T03:35:01.714Z,14.90
2022-11-03T03:37:32.094Z,14.90
2022-11-03T03:40:06.169Z,14.90
2022-11-03T03:42:38.020Z,14.90
2022-11-03T03:45:09.628Z,14.90
2022-11-03T03:47:38.445Z,14.90
2022-11-03T03:50:07.917Z,14.90
2022-11-03T03:52:36.856Z,14.90
2022-11-03T03:55:08.975Z,14.90
2022-11-03T03:57:38.808Z,14.90
2022-11-03T04:00:09.540Z,14.90
2022-11-03T04:02:40.879Z,14.90
2022-11-03T04:05:09.450Z,14.90
2022-11-03T04:07:49.661Z,14.90
2022-11-03T04:10:19.063Z,14.90
2022-11-03T04:13:06.950Z,14.90
2022-11-03T04:15:52.828Z,14.90
2022-11-03T04:18:40.265Z,14.90
2022-11-03T04:21:30.884Z,14.90
2022-11-03T04:24:00.317Z,14.90
2022-11-03T04:26:29.675Z,14.90
2022-11-03T04:29:00.091Z,14.90
2022-11-03T04:31:30.243Z,14.90
2022-11-03T04:33:59.170Z,14.90
2022-11-03T04:36:27.513Z,14.90
2022-11-03T04:38:55.963Z,14.90
2022-11-03T04:41:26.739Z,14.90
2022-11-03T04:43:55.551Z,14.90
2022-11-03T04:46:28.447Z,14.90
2022-11-03T04:48:59.905Z,14.90
2022-11-03T04:51:30.835Z,15.00
2022-11-03T04:54:04.068Z,14.90
2022-11-03T04:56:33.765Z,14.90
2022-11-03T04:59:02.171Z,15.00
2022-11-03T05:01:32.254Z,14.90
2022-11-03T05:04:00.798Z,14.90
2022-11-03T05:06:30.949Z,14.90
2022-11-03T05:09:01.982Z,14.90
2022-11-03T05:11:33.324Z,14.90
2022-11-03T05:14:04.125Z,14.90
2022-11-03T05:16:34.991Z,14.90
2022-11-03T05:19:03.827Z,14.90
2022-11-03T05:21:32.380Z,14.90
2022-11-03T05:24:04.546Z,15.00
2022-11-03T05:26:36.220Z,14.90
2022-11-03T05:29:10.725Z,14.90
2022-11-03T05:31:43.612Z,14.90
2022-11-03T05:34:33.675Z,14.90
2022-11-03T05:37:20.641Z,14.90
2022-11-03T05:39:52.921Z,14.90
2022-11-03T05:42:30.977Z,15.00
2022-11-03T05:45:00.476Z,14.90
2022-11-03T05:47:34.791Z,14.90
2022-11-03T05:50:15.487Z,15.00
2022-11-03T05:52:46.146Z,14.90
2022-11-03T05:55:27.974Z,15.00
2022-11-03T05:57:58.704Z,15.00
2022-11-03T06:00:30.360Z,15.00
2022-11-03T06:03:00.915Z,15.00
2022-11-03T06:05:29.801Z,15.00
2022-11-03T06:08:01.857Z,15.10
2022-11-03T06:10:32.906Z,15.10
2022-11-03T06:13:05.951Z,15.00
2022-11-03T06:15:37.114Z,15.10
2022-11-03T06:18:16.109Z,15.10
2022-11-03T06:20:52.284Z,15.10
2022-11-03T06:23:21.879Z,15.10
2022-11-03T06:25:51.202Z,15.10
2022-11-03T06:28:22.614Z,15.10
2022-11-03T06:30:52.168Z,15.10
2022-11-03T06:33:26.882Z,15.10
2022-11-03T06:35:57.859Z,15.10
2022-11-03T06:38:29.698Z,15.10
2022-11-03T06:40:59.310Z,15.20
2022-11-03T06:43:40.827Z,15.20
2022-11-03T06:46:15.378Z,15.20
2022-11-03T06:48:46.252Z,15.30
2022-11-03T06:51:19.790Z,15.30
2022-11-03T06:53:49.097Z,15.30
2022-11-03T06:56:21.269Z,15.30
2022-11-03T06:58:51.080Z,15.40
2022-11-03T07:01:23.236Z,15.40
2022-11-03T07:03:57.809Z,15.40
2022-11-03T07:06:32.484Z,15.40
2022-11-03T07:09:02.615Z,15.40
2022-11-03T07:11:33.055Z,15.40
2022-11-03T07:14:11.425Z,15.40
2022-11-03T07:16:44.862Z,15.40
2022-11-03T07:19:19.807Z,15.40
2022-11-03T07:21:50.255Z,15.40
2022-11-03T07:24:23.270Z,15.50
2022-11-03T07:26:57.819Z,15.50
2022-11-03T07:29:29.985Z,15.50
2022-11-03T07:32:00.607Z,15.50
2022-11-03T07:34:34.546Z,15.50
2022-11-03T07:37:03.114Z,15.50
2022-11-03T07:39:37.111Z,15.60
2022-11-03T07:42:14.870Z,15.60
2022-11-03T07:44:43.214Z,15.60
2022-11-03T07:47:14.999Z,15.70
2022-11-03T07:49:45.104Z,15.70
2022-11-03T07:52:17.431Z,15.70
2022-11-03T07:54:45.904Z,15.80
2022-11-03T07:57:20.230Z,15.80
2022-11-03T07:59:50.467Z,15.90
2022-11-03T08:02:30.223Z,16.00
2022-11-03T08:05:00.179Z,16.10
2022-11-03T08:07:29.424Z,16.20
2022-11-03T08:09:57.892Z,16.20
2022-11-03T08:12:26.372Z,16.40
2022-11-03T08:14:55.015Z,16.50
2022-11-03T08:17:23.461Z,16.60
2022-11-03T08:19:51.866Z,16.70
2022-11-03T08:22:23.194Z,16.80
2022-11-03T08:24:51.632Z,16.70
2022-11-03T08:27:20.675Z,16.60
2022-11-03T08:29:49.183Z,16.70
2022-11-03T08:32:17.690Z,16.60
2022-11-03T08:34:46.146Z,16.60
2022-11-03T08:37:14.590Z,16.50
2022-11-03T08:39:44.214Z,16.40
2022-11-03T08:42:12.578Z,16.40
2022-11-03T08:44:40.977Z,16.30
2022-11-03T08:47:09.406Z,16.30
2022-11-03T08:49:38.085Z,16.20
2022-11-03T08:52:06.704Z,16.20
2022-11-03T08:54:35.049Z,16.20
2022-11-03T08:57:04.862Z,16.20
2022-11-03T08:59:33.832Z,16.20
2022-11-03T09:02:02.369Z,16.20
2022-11-03T09:04:30.830Z,16.20
2022-11-03T09:06:59.318Z,16.20
2022-11-03T09:12:17.452Z,16.20
2022-11-03T09:14:45.784Z,16.20
2022-11-03T09:17:14.251Z,16.20
2022-11-03T09:19:42.598Z,16.20
2022-11-03T09:22:10.952Z,16.10
2022-11-03T09:24:39.226Z,16.20
2022-11-03T09:27:07.574Z,16.20
2022-11-03T09:30:06.570Z,16.10
2022-11-03T09:32:26.398Z,16.20
2022-11-03T09:34:54.817Z,16.30
2022-11-03T09:37:23.997Z,16.30
2022-11-03T09:39:52.381Z,16.40
2022-11-03T09:42:21.021Z,16.40
2022-11-03T09:44:51.978Z,16.50
2022-11-03T09:47:25.024Z,16.50
2022-11-03T09:49:53.651Z,16.60
2022-11-03T09:52:24.216Z,16.50
2022-11-03T09:54:55.671Z,16.60
2022-11-03T09:57:26.377Z,16.50
2022-11-03T09:59:56.767Z,16.50
2022-11-03T10:02:28.519Z,16.50
2022-11-03T10:05:00.186Z,16.50
2022-11-03T10:07:31.142Z,16.50
2022-11-03T10:10:01.194Z,16.40
2022-11-03T10:12:33.462Z,16.40
2022-11-03T10:15:03.234Z,16.40
2022-11-03T10:17:32.349Z,16.40
2022-11-03T10:20:01.895Z,16.40
2022-11-03T10:22:30.251Z,16.30
2022-11-03T10:25:35.943Z,16.30
2022-11-03T10:28:16.863Z,16.30
2022-11-03T10:31:10.752Z,16.30
2022-11-03T10:33:41.765Z,16.30
2022-11-03T10:36:25.372Z,16.30
2022-11-03T10:38:54.081Z,16.40
2022-11-03T10:41:23.980Z,16.40
2022-11-03T10:44:08.117Z,16.40
2022-11-03T10:46:50.777Z,16.40
2022-11-03T10:49:21.309Z,16.40
2022-11-03T10:51:52.219Z,16.50
2022-11-03T10:54:23.401Z,16.50
2022-11-03T10:56:52.494Z,16.50
2022-11-03T10:59:23.379Z,16.50
2022-11-03T11:01:53.331Z,16.50
2022-11-03T11:04:22.358Z,16.50
2022-11-03T11:06:51.384Z,16.50
2022-11-03T11:09:25.573Z,16.50
2022-11-03T11:12:02.429Z,16.40
2022-11-03T11:14:39.787Z,16.40
2022-11-03T11:17:45.319Z,16.40
2022-11-03T11:20:40.251Z,16.30
2022-11-03T11:23:49.033Z,16.30
2022-11-03T11:26:32.308Z,16.30
2022-11-03T11:29:44.004Z,16.20
2022-11-03T11:32:52.227Z,16.20
2022-11-03T11:35:59.441Z,16.20
2022-11-03T11:39:07.123Z,16.20
2022-11-03T11:42:14.617Z,16.20
2022-11-03T11:45:02.841Z,16.20
2022-11-03T11:47:46.304Z,16.20
2022-11-03T11:50:31.937Z,16.20
2022-11-03T11:53:04.154Z,16.30
2022-11-03T11:55:46.921Z,16.30
2022-11-03T11:58:31.803Z,16.30
2022-11-03T12:01:02.279Z,16.40
2022-11-03T12:03:34.932Z,16.40
2022-11-03T12:06:03.757Z,16.50
2022-11-03T12:08:32.837Z,16.50
2022-11-03T12:11:04.150Z,16.50
2022-11-03T12:13:48.461Z,16.50
2022-11-03T12:16:30.281Z,16.60
2022-11-03T12:18:59.038Z,16.60
2022-11-03T12:21:47.369Z,16.60
2022-11-03T12:24:49.141Z,16.60
2022-11-03T12:27:36.725Z,16.60
2022-11-03T12:30:12.648Z,16.60
2022-11-03T12:32:41.099Z,16.60
2022-11-03T12:35:11.235Z,16.60
2022-11-03T12:37:39.716Z,16.60
2022-11-03T12:40:09.214Z,16.60
2022-11-03T12:42:37.582Z,16.60
2022-11-03T12:45:08.863Z,16.70
2022-11-03T12:47:37.195Z,16.70
2022-11-03T12:50:06.095Z,16.70
2022-11-03T12:52:34.441Z,16.70
2022-11-03T12:55:02.918Z,16.70
2022-11-03T12:57:31.334Z,16.70
2022-11-03T12:59:59.682Z,16.70
2022-11-03T13:02:29.441Z,16.80
2022-11-03T13:04:57.865Z,16.80
2022-11-03T13:07:31.824Z,16.80
2022-11-03T13:10:03.134Z,16.80
2022-11-03T13:12:35.245Z,16.70
2022-11-03T13:15:05.837Z,16.80
2022-11-03T13:17:59.152Z,16.80
2022-11-03T13:20:24.643Z,16.70
2022-11-03T13:22:53.030Z,16.80
2022-11-03T13:25:24.355Z,16.80
2022-11-03T13:27:53.897Z,16.80
2022-11-03T13:30:22.602Z,16.80
2022-11-03T13:32:52.867Z,16.90
2022-11-03T13:35:21.614Z,16.90
2022-11-03T13:37:49.957Z,17.00
2022-11-03T13:40:50.447Z,17.00
2022-11-03T13:43:07.585Z,17.00
2022-11-03T13:45:36.224Z,17.00
2022-11-03T13:50:54.580Z,17.10
2022-11-03T13:56:17.216Z,17.00
2022-11-03T14:01:37.583Z,16.90
2022-11-03T14:06:56.012Z,16.90
2022-11-03T14:09:24.995Z,16.90
2022-11-03T14:12:10.526Z,16.90
2022-11-03T14:14:38.950Z,16.90
2022-11-03T14:17:07.359Z,16.90
2022-11-03T14:19:43.086Z,17.00
2022-11-03T14:22:14.519Z,16.90
2022-11-03T14:24:42.963Z,17.00
2022-11-03T14:27:11.406Z,16.90
2022-11-03T14:29:39.754Z,16.90
2022-11-03T14:32:08.152Z,16.90
2022-11-03T14:34:38.555Z,16.90
2022-11-03T14:37:08.910Z,16.90
2022-11-03T14:39:37.654Z,16.90
2022-11-03T14:42:05.364Z,17.00
2022-11-03T14:44:34.882Z,16.90
2022-11-03T14:47:05.123Z,16.90
2022-11-03T14:49:34.728Z,16.90
2022-11-03T14:52:07.367Z,16.80
2022-11-03T14:54:36.700Z,16.80
2022-11-03T14:57:05.999Z,16.80
2022-11-03T14:59:35.815Z,16.80
2022-11-03T15:02:05.106Z,16.80
2022-11-03T15:04:33.446Z,16.90
2022-11-03T15:07:01.911Z,16.80
2022-11-03T15:09:31.687Z,16.80
2022-11-03T15:12:00.018Z,16.80
2022-11-03T15:14:29.823Z,16.80
2022-11-03T15:16:58.250Z,16.70
2022-11-03T15:19:26.558Z,16.70
2022-11-03T15:21:54.855Z,16.70
2022-11-03T15:27:13.075Z,16.70
2022-11-03T15:29:41.455Z,16.70
2022-11-03T15:32:09.818Z,16.70
2022-11-03T15:34:38.403Z,16.60
2022-11-03T15:37:06.853Z,16.60
2022-11-03T15:39:35.278Z,16.60
2022-11-03T15:42:03.725Z,16.60
2022-11-03T15:44:33.353Z,16.60
2022-11-03T15:47:01.729Z,16.60
2022-11-03T15:49:30.054Z,16.60
2022-11-03T15:51:58.391Z,16.60
2022-11-03T15:54:26.913Z,16.60
2022-11-03T15:56:55.307Z,16.50
2022-11-03T15:59:23.647Z,16.50
2022-11-03T16:02:03.468Z,16.50
2022-11-03T16:04:42.003Z,16.50
2022-11-03T16:07:10.507Z,16.50
2022-11-03T16:09:39.011Z,16.50
2022-11-03T16:12:07.926Z,16.40
2022-11-03T16:14:36.390Z,16.40
2022-11-03T16:17:06.985Z,16.40
2022-11-03T16:19:35.349Z,16.40
2022-11-03T16:22:03.795Z,16.40
2022-11-03T16:24:35.203Z,16.30
2022-11-03T16:27:04.839Z,16.30
2022-11-03T16:29:33.394Z,16.30
2022-11-03T16:32:01.809Z,16.40
2022-11-03T16:34:31.599Z,16.40
2022-11-03T16:37:00.785Z,16.40
2022-11-03T16:39:30.052Z,16.30
2022-11-03T16:41:58.389Z,16.30
2022-11-03T16:44:27.628Z,16.30
2022-11-03T16:46:56.426Z,16.30
2022-11-03T16:49:24.780Z,16.30
2022-11-03T16:51:54.598Z,16.30
2022-11-03T16:54:22.957Z,16.30
2022-11-03T16:56:54.596Z,16.20
2022-11-03T16:59:25.611Z,16.20
2022-11-03T17:01:54.502Z,16.10
2022-11-03T17:04:22.985Z,16.10
2022-11-03T17:06:51.473Z,16.10
2022-11-03T17:09:21.451Z,16.10
2022-11-03T17:11:49.903Z,16.00
2022-11-03T17:14:18.301Z,16.00
2022-11-03T17:16:48.392Z,16.00
2022-11-03T17:19:16.983Z,15.90
2022-11-03T17:21:47.276Z,15.90
2022-11-03T17:24:15.827Z,15.90
2022-11-03T17:26:53.026Z,15.90
2022-11-03T17:29:24.857Z,15.80
2022-11-03T17:31:53.201Z,15.80
2022-11-03T17:34:25.140Z,15.80
2022-11-03T17:36:55.382Z,15.80
2022-11-03T17:39:29.319Z,15.80
2022-11-03T17:42:14.751Z,15.80
2022-11-03T17:44:43.406Z,15.80
2022-11-03T17:47:11.781Z,15.80
2022-11-03T17:49:40.642Z,15.80
2022-11-03T17:52:15.904Z,15.80
2022-11-03T17:54:44.798Z,15.80
2022-11-03T17:57:17.959Z,15.80
2022-11-03T17:59:50.953Z,15.90
2022-11-03T18:02:23.111Z,15.90
2022-11-03T18:04:54.284Z,15.80
2022-11-03T18:07:25.193Z,15.80
2022-11-03T18:09:54.211Z,15.90
2022-11-03T18:12:45.266Z,15.90
2022-11-03T18:15:17.666Z,15.90
2022-11-03T18:17:46.634Z,15.80
2022-11-03T18:20:17.379Z,15.90
2022-11-03T18:22:46.575Z,15.90
2022-11-03T18:25:16.132Z,15.90
2022-11-03T18:27:45.976Z,15.90
2022-11-03T18:30:16.874Z,15.90
2022-11-03T18:32:46.554Z,15.90
2022-11-03T18:35:18.578Z,15.80
2022-11-03T18:37:47.077Z,15.90
2022-11-03T18:40:16.565Z,15.90
2022-11-03T18:42:47.587Z,15.80
2022-11-03T18:45:17.859Z,15.80
2022-11-03T18:47:46.541Z,15.80
2022-11-03T18:50:16.144Z,15.80
2022-11-03T18:52:47.618Z,15.70
2022-11-03T18:55:17.738Z,15.70
2022-11-03T18:57:47.603Z,15.70
2022-11-03T19:00:19.859Z,15.70
2022-11-03T19:02:49.022Z,15.60
2022-11-03T19:05:18.315Z,15.70
2022-11-03T19:07:49.410Z,15.60
2022-11-03T19:10:21.908Z,15.70
2022-11-03T19:12:52.133Z,15.70
2022-11-03T19:15:23.021Z,15.70
2022-11-03T19:17:55.596Z,15.70
2022-11-03T19:20:25.550Z,15.70
2022-11-03T19:22:53.959Z,15.70
2022-11-03T19:25:22.371Z,15.80
2022-11-03T19:27:52.116Z,15.80
2022-11-03T19:30:20.937Z,15.90
2022-11-03T19:32:52.302Z,15.90
2022-11-03T19:35:23.434Z,15.90
2022-11-03T19:37:59.725Z,15.90
2022-11-03T19:40:28.161Z,15.90
2022-11-03T19:42:57.724Z,15.80
2022-11-03T19:45:28.470Z,15.90
2022-11-03T19:50:47.764Z,15.90
2022-11-03T19:53:22.192Z,15.90
2022-11-03T19:55:50.977Z,15.90
2022-11-03T19:58:22.337Z,15.90
2022-11-03T20:00:51.740Z,16.00
2022-11-03T20:03:22.140Z,16.00
2022-11-03T20:05:53.443Z,16.00
2022-11-03T20:08:25.067Z,16.00
2022-11-03T20:10:54.006Z,16.10
2022-11-03T20:13:26.288Z,16.10
2022-11-03T20:16:00.725Z,16.20
2022-11-03T20:18:29.935Z,16.20
2022-11-03T20:20:58.959Z,16.20
2022-11-03T20:23:30.240Z,16.20
2022-11-03T20:25:58.972Z,16.30
2022-11-03T20:28:31.072Z,16.20
2022-11-03T20:31:01.306Z,16.20
2022-11-03T20:33:30.994Z,16.20
2022-11-03T20:36:00.219Z,16.20
2022-11-03T20:38:30.003Z,16.20
2022-11-03T20:41:00.014Z,16.20
2022-11-03T20:43:33.128Z,16.20
2022-11-03T20:46:02.202Z,16.20
2022-11-03T20:48:31.254Z,16.20
2022-11-03T20:50:59.695Z,16.10
2022-11-03T20:53:28.214Z,16.10
2022-11-03T20:55:56.592Z,16.10
2022-11-03T20:58:24.976Z,16.10
2022-11-03T21:00:55.031Z,16.00
2022-11-03T21:03:57.650Z,15.90
2022-11-03T21:06:18.763Z,15.80
2022-11-03T21:08:48.311Z,15.80
2022-11-03T21:11:24.305Z,15.60
2022-11-03T21:13:53.195Z,15.50
2022-11-03T21:16:40.645Z,15.50
2022-11-03T21:19:37.414Z,15.50
2022-11-03T21:25:03.634Z,15.50
2022-11-03T21:27:32.056Z,15.50
2022-11-03T21:30:00.729Z,15.40
2022-11-03T21:32:30.430Z,15.40
2022-11-03T21:34:58.855Z,15.50
2022-11-03T21:37:27.258Z,15.50
2022-11-03T21:39:55.661Z,15.50
2022-11-03T21:42:41.748Z,15.50
2022-11-03T21:45:10.878Z,15.50
2022-11-03T21:48:00.695Z,15.50
2022-11-03T21:50:28.048Z,15.60
2022-11-03T21:52:57.569Z,15.70
2022-11-03T21:55:26.292Z,15.80
2022-11-03T21:57:54.581Z,15.90
2022-11-03T22:00:23.192Z,15.90
2022-11-03T22:02:53.083Z,16.10
2022-11-03T22:05:21.585Z,16.20
2022-11-03T22:07:50.037Z,16.30
2022-11-03T22:10:18.445Z,16.30
2022-11-03T22:12:47.093Z,16.40
2022-11-03T22:15:32.314Z,16.40
2022-11-03T22:18:03.464Z,16.40
2022-11-03T22:20:49.214Z,16.40
2022-11-03T22:23:35.207Z,16.30
2022-11-03T22:26:20.837Z,16.30
2022-11-03T22:29:09.574Z,16.20
2022-11-03T22:31:43.146Z,16.10
2022-11-03T22:34:29.998Z,16.00
2022-11-03T22:36:58.379Z,15.90
2022-11-03T22:39:43.858Z,15.90
2022-11-03T22:42:30.770Z,15.90
2022-11-03T22:45:16.705Z,15.90
2022-11-03T22:47:45.217Z,15.90
2022-11-03T22:50:15.098Z,15.80
2022-11-03T22:52:43.568Z,15.80
2022-11-03T22:55:10.892Z,15.80
2022-11-03T22:57:39.303Z,15.80
2022-11-03T23:00:08.627Z,15.80
2022-11-03T23:02:37.013Z,15.70
2022-11-03T23:05:06.101Z,15.70
2022-11-03T23:07:41.248Z,15.70
2022-11-03T23:10:10.762Z,15.70
2022-11-03T23:12:39.099Z,15.70
2022-11-03T23:15:26.076Z,15.70
2022-11-03T23:18:11.938Z,15.60
2022-11-03T23:20:57.746Z,15.60
2022-11-03T23:23:44.969Z,15.60
2022-11-03T23:26:13.546Z,15.60
2022-11-03T23:28:41.992Z,15.60
2022-11-03T23:31:10.601Z,15.60
2022-11-03T23:33:39.381Z,15.60
2022-11-03T23:36:10.068Z,15.60
2022-11-03T23:38:40.935Z,15.60
2022-11-03T23:41:10.483Z,15.60
2022-11-03T23:43:39.428Z,15.50
2022-11-03T23:46:25.413Z,15.50
2022-11-03T23:48:54.527Z,15.50
2022-11-03T23:51:24.415Z,15.40
2022-11-03T23:53:55.078Z,15.40
2022-11-03T23:56:43.235Z,15.30
2022-11-03T23:59:13.156Z,15.30
